createdAt,value
2023-01-30T00:01:28.528Z,100666.69
2023-01-30T00:03:57.066Z,100657.30
2023-01-30T00:06:25.895Z,100656.26
2023-01-30T00:08:54.326Z,100647.59
2023-01-30T00:11:22.862Z,100647.42
2023-01-30T00:13:51.595Z,100647.81
2023-01-30T00:16:19.994Z,100634.21
2023-01-30T00:18:48.368Z,100623.16
2023-01-30T00:21:17.370Z,100623.77
2023-01-30T00:23:46.245Z,100620.36
2023-01-30T00:26:14.717Z,100610.66
2023-01-30T00:28:43.932Z,100611.46
2023-01-30T00:31:12.305Z,100606.07
2023-01-30T00:33:40.521Z,100599.31
2023-01-30T00:36:10.864Z,100599.49
2023-01-30T00:38:39.183Z,100599.88
2023-01-30T00:41:10.960Z,100586.64
2023-01-30T00:43:58.015Z,100574.02
2023-01-30T00:46:49.710Z,100571.80
2023-01-30T00:49:18.926Z,100560.33
2023-01-30T00:51:47.459Z,100502.95
2023-01-30T00:54:15.876Z,100541.94
2023-01-30T00:56:44.221Z,100534.00
2023-01-30T00:59:12.577Z,100534.26
2023-01-30T01:01:41.238Z,100528.14
2023-01-30T01:04:10.658Z,100524.73
2023-01-30T01:06:40.197Z,100521.63
2023-01-30T01:09:08.776Z,100515.48
2023-01-30T01:11:37.219Z,100498.68
2023-01-30T01:14:06.872Z,100502.49
2023-01-30T01:16:36.320Z,100500.14
2023-01-30T01:19:04.752Z,100496.77
2023-01-30T01:21:33.298Z,100482.03
2023-01-30T01:24:01.687Z,100483.41
2023-01-30T01:26:30.082Z,100479.46
2023-01-30T01:28:59.573Z,100469.75
2023-01-30T01:31:28.078Z,100467.67
2023-01-30T01:33:57.803Z,100457.99
2023-01-30T01:36:53.352Z,100448.58
2023-01-30T01:39:17.619Z,100438.67
2023-01-30T01:41:46.030Z,100427.62
2023-01-30T01:44:17.513Z,100427.70
2023-01-30T01:46:52.506Z,100415.11
2023-01-30T01:49:28.249Z,100409.65
2023-01-30T01:52:17.245Z,100383.41
2023-01-30T01:54:50.782Z,100398.17
2023-01-30T01:57:34.047Z,100394.25
2023-01-30T02:00:12.095Z,100381.38
2023-01-30T02:02:57.542Z,100373.16
2023-01-30T02:05:35.161Z,100370.25
2023-01-30T02:08:12.019Z,100361.49
2023-01-30T02:11:11.710Z,100356.63
2023-01-30T02:13:40.479Z,100346.00
2023-01-30T02:16:09.698Z,100331.06
2023-01-30T02:18:42.372Z,100329.89
2023-01-30T02:22:15.317Z,100326.68
2023-01-30T02:25:27.384Z,100325.17
2023-01-30T02:28:33.976Z,100323.30
2023-01-30T02:31:19.053Z,100307.61
2023-01-30T02:34:12.177Z,100285.20
2023-01-30T02:37:01.540Z,100275.52
2023-01-30T02:39:47.984Z,100268.09
2023-01-30T02:42:25.421Z,100257.48
2023-01-30T02:44:58.147Z,100262.58
2023-01-30T02:47:34.714Z,100248.72
2023-01-30T02:50:10.664Z,100228.74
2023-01-30T02:52:41.317Z,100228.02
2023-01-30T02:55:19.570Z,100222.80
2023-01-30T02:57:48.289Z,100217.14
2023-01-30T03:00:35.216Z,100221.69
2023-01-30T03:03:25.037Z,100234.36
2023-01-30T03:06:14.892Z,100235.61
2023-01-30T03:09:00.427Z,100217.83
2023-01-30T03:11:53.095Z,100203.71
2023-01-30T03:14:29.739Z,100196.85
2023-01-30T03:17:01.000Z,100191.85
2023-01-30T03:19:30.649Z,100200.92
2023-01-30T03:21:59.102Z,100185.42
2023-01-30T03:24:27.907Z,100184.42
2023-01-30T03:27:03.735Z,100183.29
2023-01-30T03:29:32.881Z,100177.37
2023-01-30T03:32:01.360Z,100172.98
2023-01-30T03:34:29.574Z,100159.85
2023-01-30T03:36:57.991Z,100148.02
2023-01-30T03:39:26.772Z,100134.17
2023-01-30T03:41:55.227Z,100129.58
2023-01-30T03:44:23.640Z,100128.52
2023-01-30T03:46:52.135Z,100116.70
2023-01-30T03:49:21.645Z,100130.88
2023-01-30T03:51:50.011Z,100126.23
2023-01-30T03:54:18.195Z,100120.05
2023-01-30T03:56:48.359Z,100121.66
2023-01-30T03:59:16.643Z,100114.41
2023-01-30T04:01:50.659Z,100096.89
2023-01-30T04:04:18.933Z,100097.48
2023-01-30T04:06:48.346Z,100093.69
2023-01-30T04:09:20.375Z,100081.14
2023-01-30T04:11:51.121Z,100080.42
2023-01-30T04:14:20.111Z,100059.48
2023-01-30T04:17:08.504Z,100052.30
2023-01-30T04:20:14.422Z,100039.52
2023-01-30T04:22:54.315Z,100039.79
2023-01-30T04:25:23.043Z,100027.89
2023-01-30T04:27:51.589Z,100024.38
2023-01-30T04:30:22.728Z,100019.87
2023-01-30T04:32:54.928Z,100015.16
2023-01-30T04:35:23.294Z,100011.01
2023-01-30T04:37:51.668Z,100009.70
2023-01-30T04:40:21.643Z,99996.56
2023-01-30T04:42:50.074Z,99987.13
2023-01-30T04:45:51.852Z,99967.56
2023-01-30T04:48:23.701Z,99989.34
2023-01-30T04:50:54.039Z,99968.23
2023-01-30T04:53:22.969Z,99959.42
2023-01-30T04:55:51.931Z,99959.88
2023-01-30T04:58:20.401Z,99951.39
2023-01-30T05:00:48.878Z,99951.52
2023-01-30T05:03:17.484Z,99938.23
2023-01-30T05:05:49.345Z,99936.45
2023-01-30T05:08:17.547Z,99929.67
2023-01-30T05:10:45.991Z,99926.02
2023-01-30T05:13:14.089Z,99913.94
2023-01-30T05:15:42.662Z,99912.54
2023-01-30T05:18:10.866Z,99913.42
2023-01-30T05:20:38.933Z,99904.83
2023-01-30T05:23:07.087Z,99901.86
2023-01-30T05:25:35.185Z,99891.15
2023-01-30T05:28:03.738Z,99884.52
2023-01-30T05:30:31.952Z,99885.52
2023-01-30T05:33:00.199Z,99872.37
2023-01-30T05:35:28.328Z,99872.96
2023-01-30T05:37:56.447Z,99869.66
2023-01-30T05:40:24.642Z,99857.58
2023-01-30T05:42:52.757Z,99857.99
2023-01-30T05:45:24.982Z,99854.44
2023-01-30T05:47:56.319Z,99843.69
2023-01-30T05:50:24.601Z,99835.27
2023-01-30T05:52:52.770Z,99834.34
2023-01-30T05:55:21.017Z,99833.69
2023-01-30T05:57:49.152Z,99828.95
2023-01-30T06:00:17.715Z,99825.85
2023-01-30T06:02:45.930Z,99834.11
2023-01-30T06:05:14.258Z,99820.65
2023-01-30T06:07:42.616Z,99823.70
2023-01-30T06:10:11.425Z,99818.83
2023-01-30T06:12:39.596Z,99797.80
2023-01-30T06:15:09.231Z,99796.48
2023-01-30T06:17:37.897Z,99803.99
2023-01-30T06:20:06.535Z,99800.80
2023-01-30T06:22:34.640Z,99797.00
2023-01-30T06:25:03.218Z,99791.19
2023-01-30T06:27:31.520Z,99788.27
2023-01-30T06:29:59.832Z,99770.24
2023-01-30T06:32:28.335Z,99783.56
2023-01-30T06:34:56.422Z,99775.59
2023-01-30T06:37:24.657Z,99770.48
2023-01-30T06:39:52.844Z,99767.36
2023-01-30T06:42:21.084Z,99763.40
2023-01-30T06:44:49.238Z,99753.73
2023-01-30T06:47:17.886Z,99756.97
2023-01-30T06:49:47.370Z,99755.92
2023-01-30T06:52:16.006Z,99758.55
2023-01-30T06:54:44.149Z,99751.86
2023-01-30T06:57:12.731Z,99751.67
2023-01-30T06:59:40.884Z,99746.64
2023-01-30T07:02:13.367Z,99745.73
2023-01-30T07:04:42.984Z,99728.61
2023-01-30T07:07:11.340Z,99745.27
2023-01-30T07:09:39.613Z,99707.85
2023-01-30T07:12:21.818Z,99742.09
2023-01-30T07:14:50.179Z,99729.11
2023-01-30T07:17:18.563Z,99727.36
2023-01-30T07:19:47.321Z,99731.35
2023-01-30T07:22:16.666Z,99734.61
2023-01-30T07:24:45.017Z,99736.09
2023-01-30T07:27:13.955Z,99731.08
2023-01-30T07:29:42.102Z,99727.61
2023-01-30T07:32:17.273Z,99725.20
2023-01-30T07:34:46.283Z,99721.02
2023-01-30T07:37:16.160Z,99720.89
2023-01-30T07:39:44.495Z,99715.46
2023-01-30T07:42:13.891Z,99719.05
2023-01-30T07:44:41.996Z,99720.88
2023-01-30T07:47:10.236Z,99715.13
2023-01-30T07:49:38.357Z,99716.77
2023-01-30T07:52:06.573Z,99713.61
2023-01-30T07:54:34.668Z,99714.06
2023-01-30T07:57:02.968Z,99711.17
2023-01-30T07:59:31.114Z,99698.46
2023-01-30T08:01:59.419Z,99704.94
2023-01-30T08:04:27.815Z,99705.88
2023-01-30T08:06:56.671Z,99713.98
2023-01-30T08:09:24.867Z,99707.27
2023-01-30T08:11:53.116Z,99704.85
2023-01-30T08:14:21.298Z,99705.09
2023-01-30T08:16:49.967Z,99708.48
2023-01-30T08:19:18.243Z,99703.52
2023-01-30T08:21:46.372Z,99677.19
2023-01-30T08:24:14.999Z,99709.60
2023-01-30T08:26:43.356Z,99697.58
2023-01-30T08:29:13.470Z,99699.84
2023-01-30T08:31:41.606Z,99700.06
2023-01-30T08:34:23.235Z,99700.70
2023-01-30T08:36:51.474Z,99700.39
2023-01-30T08:39:20.122Z,99702.55
2023-01-30T08:41:48.530Z,99704.42
2023-01-30T08:44:16.788Z,99707.85
2023-01-30T08:46:45.065Z,99693.31
2023-01-30T08:49:13.315Z,99707.27
2023-01-30T08:51:41.426Z,99695.98
2023-01-30T08:54:09.817Z,99683.52
2023-01-30T08:56:38.518Z,99686.74
2023-01-30T08:59:06.622Z,99672.30
2023-01-30T09:01:35.517Z,99684.95
2023-01-30T09:04:03.883Z,99688.63
2023-01-30T09:06:32.226Z,99678.88
2023-01-30T09:09:00.728Z,99682.27
2023-01-30T09:11:31.386Z,99674.43
2023-01-30T09:13:59.660Z,99669.53
2023-01-30T09:16:27.962Z,99670.06
2023-01-30T09:18:56.566Z,99670.42
2023-01-30T09:21:24.704Z,99665.32
2023-01-30T09:23:52.810Z,99668.93
2023-01-30T09:26:20.887Z,99657.42
2023-01-30T09:28:49.106Z,99658.71
2023-01-30T09:31:17.407Z,99657.38
2023-01-30T09:33:45.628Z,99648.17
2023-01-30T09:36:14.073Z,99639.52
2023-01-30T09:38:42.225Z,99646.61
2023-01-30T09:41:48.760Z,99633.56
2023-01-30T09:44:32.999Z,99632.27
2023-01-30T09:47:19.355Z,99630.17
2023-01-30T09:49:59.622Z,99632.12
2023-01-30T09:52:41.055Z,99626.02
2023-01-30T09:55:23.343Z,99621.70
2023-01-30T09:57:52.427Z,99627.85
2023-01-30T10:00:39.691Z,99621.57
2023-01-30T10:03:24.185Z,99624.69
2023-01-30T10:06:06.368Z,99620.08
2023-01-30T10:08:49.749Z,99618.88
2023-01-30T10:11:23.847Z,99615.14
2023-01-30T10:14:01.351Z,99609.82
2023-01-30T10:17:20.443Z,99618.79
2023-01-30T10:20:26.801Z,99619.30
2023-01-30T10:22:54.869Z,99614.27
2023-01-30T10:25:23.154Z,99617.73
2023-01-30T10:27:59.049Z,99611.71
2023-01-30T10:30:27.270Z,99607.33
2023-01-30T10:33:02.963Z,99596.73
2023-01-30T10:35:41.831Z,99597.31
2023-01-30T10:38:20.873Z,99591.55
2023-01-30T10:41:03.794Z,99586.92
2023-01-30T10:43:41.080Z,99580.27
2023-01-30T10:46:23.992Z,99580.44
2023-01-30T10:49:07.353Z,99564.18
2023-01-30T10:51:44.492Z,99563.85
2023-01-30T10:54:34.065Z,99562.39
2023-01-30T10:57:20.811Z,99560.86
2023-01-30T11:00:02.869Z,99567.06
2023-01-30T11:02:54.771Z,99562.83
2023-01-30T11:05:27.187Z,99559.36
2023-01-30T11:07:55.477Z,99549.19
2023-01-30T11:10:26.879Z,99544.44
2023-01-30T11:13:15.916Z,99537.48
2023-01-30T11:15:48.026Z,99535.15
2023-01-30T11:21:43.603Z,99531.74
2023-01-30T11:24:28.883Z,99527.31
2023-01-30T11:27:10.347Z,99525.92
2023-01-30T11:29:40.083Z,99516.92
2023-01-30T11:32:26.857Z,99501.38
2023-01-30T11:35:09.897Z,99499.76
2023-01-30T11:37:40.909Z,99517.98
2023-01-30T11:40:18.439Z,99519.60
2023-01-30T11:42:50.371Z,99512.30
2023-01-30T11:45:27.024Z,99507.27
2023-01-30T11:48:04.471Z,99504.80
2023-01-30T11:50:49.476Z,99497.86
2023-01-30T11:53:29.948Z,99495.56
2023-01-30T11:56:08.351Z,99489.73
2023-01-30T11:58:40.312Z,99484.69
2023-01-30T12:01:11.306Z,99484.14
2023-01-30T12:03:50.115Z,99476.08
2023-01-30T12:06:44.467Z,99477.45
2023-01-30T12:09:33.425Z,99475.08
2023-01-30T12:12:02.156Z,99470.79
2023-01-30T12:14:44.405Z,99467.14
2023-01-30T12:17:31.540Z,99467.10
2023-01-30T12:20:02.607Z,99462.79
2023-01-30T12:22:44.571Z,99454.48
2023-01-30T12:25:22.377Z,99454.79
2023-01-30T12:28:20.404Z,99449.35
2023-01-30T12:31:17.591Z,99448.84
2023-01-30T12:33:45.878Z,99457.86
2023-01-30T12:36:19.838Z,99460.41
2023-01-30T12:38:58.293Z,99459.53
2023-01-30T12:41:43.095Z,99458.73
2023-01-30T12:44:25.357Z,99467.05
2023-01-30T12:47:28.169Z,99465.33
2023-01-30T12:50:05.675Z,99462.66
2023-01-30T12:52:51.952Z,99452.02
2023-01-30T12:55:50.363Z,99438.09
2023-01-30T12:59:06.077Z,99431.69
2023-01-30T13:01:52.862Z,99441.63
2023-01-30T13:05:04.596Z,99442.83
2023-01-30T13:07:42.356Z,99439.77
2023-01-30T13:10:20.335Z,99439.69
2023-01-30T13:13:12.528Z,99439.95
2023-01-30T13:15:43.490Z,99441.91
2023-01-30T13:18:20.609Z,99439.05
2023-01-30T13:21:04.278Z,99445.64
2023-01-30T13:23:39.549Z,99440.77
2023-01-30T13:26:16.797Z,99434.61
2023-01-30T13:28:51.975Z,99436.71
2023-01-30T13:31:24.896Z,99435.75
2023-01-30T13:34:05.548Z,99425.60
2023-01-30T13:36:44.197Z,99429.71
2023-01-30T13:39:19.820Z,99420.26
2023-01-30T13:41:55.346Z,99430.98
2023-01-30T13:44:28.453Z,99430.73
2023-01-30T13:46:58.257Z,99420.02
2023-01-30T13:49:57.804Z,99423.80
2023-01-30T13:53:04.166Z,99433.38
2023-01-30T13:55:58.567Z,99425.80
2023-01-30T13:58:45.690Z,99432.24
2023-01-30T14:01:15.320Z,99436.11
2023-01-30T14:03:44.308Z,99438.43
2023-01-30T14:06:28.056Z,99414.48
2023-01-30T14:08:59.577Z,99430.46
2023-01-30T14:11:36.414Z,99431.61
2023-01-30T14:14:15.672Z,99431.83
2023-01-30T14:16:47.230Z,99434.95
2023-01-30T14:19:24.442Z,99431.36
2023-01-30T14:21:58.983Z,99423.27
2023-01-30T14:24:27.735Z,99426.83
2023-01-30T14:26:58.968Z,99422.09
2023-01-30T14:29:39.395Z,99424.48
2023-01-30T14:32:14.377Z,99432.98
2023-01-30T14:34:44.512Z,99437.55
2023-01-30T14:37:41.599Z,99447.73
2023-01-30T14:40:52.110Z,99451.81
2023-01-30T14:43:42.354Z,99464.45
2023-01-30T14:46:16.308Z,99451.09
2023-01-30T14:49:04.545Z,99447.10
2023-01-30T14:51:35.686Z,99456.48
2023-01-30T14:54:13.924Z,99462.13
2023-01-30T14:57:00.799Z,99469.36
2023-01-30T15:00:02.773Z,99472.31
2023-01-30T15:02:48.506Z,99472.99
2023-01-30T15:05:27.371Z,99475.91
2023-01-30T15:08:17.213Z,99485.80
2023-01-30T15:11:18.726Z,99487.83
2023-01-30T15:14:01.231Z,99484.63
2023-01-30T15:16:47.940Z,99489.40
2023-01-30T15:19:52.684Z,99499.95
2023-01-30T15:23:00.479Z,99503.10
2023-01-30T15:25:36.928Z,99510.21
2023-01-30T15:28:28.111Z,99511.46
2023-01-30T15:31:14.901Z,99509.88
2023-01-30T15:33:45.765Z,99512.51
2023-01-30T15:36:27.981Z,99511.77
2023-01-30T15:38:59.862Z,99513.40
2023-01-30T15:41:32.321Z,99523.73
2023-01-30T15:44:09.743Z,99528.31
2023-01-30T15:46:53.895Z,99502.58
2023-01-30T15:49:33.924Z,99530.45
2023-01-30T15:52:09.578Z,99530.65
2023-01-30T15:54:39.869Z,99534.48
2023-01-30T15:57:17.890Z,99536.55
2023-01-30T15:59:47.928Z,99534.29
2023-01-30T16:02:36.164Z,99528.88
2023-01-30T16:05:16.978Z,99532.07
2023-01-30T16:07:47.589Z,99538.77
2023-01-30T16:10:22.299Z,99543.25
2023-01-30T16:12:54.776Z,99544.30
2023-01-30T16:15:48.721Z,99551.08
2023-01-30T16:18:37.179Z,99549.88
2023-01-30T16:21:17.835Z,99553.74
2023-01-30T16:24:18.217Z,99557.77
2023-01-30T16:26:51.931Z,99556.63
2023-01-30T16:29:23.756Z,99555.34
2023-01-30T16:31:54.523Z,99552.30
2023-01-30T16:34:33.753Z,99555.36
2023-01-30T16:37:26.756Z,99559.98
2023-01-30T16:40:15.153Z,99559.92
2023-01-30T16:43:15.730Z,99540.80
2023-01-30T16:45:53.026Z,99560.42
2023-01-30T16:48:40.672Z,99563.73
2023-01-30T16:51:24.122Z,99559.23
2023-01-30T16:53:58.904Z,99560.64
2023-01-30T16:56:28.561Z,99554.70
2023-01-30T16:59:01.636Z,99560.20
2023-01-30T17:01:40.445Z,99561.65
2023-01-30T17:04:19.168Z,99569.02
2023-01-30T17:07:04.248Z,99569.84
2023-01-30T17:09:42.059Z,99575.50
2023-01-30T17:12:22.520Z,99585.30
2023-01-30T17:14:50.854Z,99588.48
2023-01-30T17:17:19.866Z,99590.67
2023-01-30T17:19:48.837Z,99597.55
2023-01-30T17:22:24.595Z,99602.22
2023-01-30T17:24:58.739Z,99598.10
2023-01-30T17:27:28.843Z,99600.59
2023-01-30T17:29:57.282Z,99594.16
2023-01-30T17:32:26.064Z,99588.51
2023-01-30T17:34:56.183Z,99589.40
2023-01-30T17:37:24.514Z,99594.56
2023-01-30T17:39:52.798Z,99598.35
2023-01-30T17:42:22.250Z,99595.96
2023-01-30T17:44:50.834Z,99599.84
2023-01-30T17:47:19.195Z,99605.00
2023-01-30T17:49:47.551Z,99613.89
2023-01-30T17:52:15.930Z,99615.38
2023-01-30T17:54:44.328Z,99610.20
2023-01-30T17:57:15.828Z,99613.75
2023-01-30T17:59:44.249Z,99622.18
2023-01-30T18:02:13.198Z,99622.42
2023-01-30T18:04:41.609Z,99625.04
2023-01-30T18:07:14.464Z,99614.57
2023-01-30T18:09:42.843Z,99626.48
2023-01-30T18:12:11.157Z,99626.78
2023-01-30T18:14:39.580Z,99637.05
2023-01-30T18:17:09.937Z,99638.95
2023-01-30T18:19:38.352Z,99644.99
2023-01-30T18:22:06.772Z,99656.19
2023-01-30T18:24:35.082Z,99649.46
2023-01-30T18:27:03.453Z,99656.10
2023-01-30T18:29:31.786Z,99656.33
2023-01-30T18:32:05.171Z,99657.42
2023-01-30T18:34:33.582Z,99653.02
2023-01-30T18:37:01.940Z,99656.17
2023-01-30T18:39:32.061Z,99659.51
2023-01-30T18:42:02.339Z,99662.38
2023-01-30T18:44:31.410Z,99664.11
2023-01-30T18:47:00.114Z,99665.95
2023-01-30T18:49:30.473Z,99662.82
2023-01-30T18:51:58.799Z,99661.63
2023-01-30T18:54:29.228Z,99661.24
2023-01-30T18:56:57.749Z,99661.65
2023-01-30T18:59:26.704Z,99657.40
2023-01-30T19:01:54.957Z,99653.71
2023-01-30T19:04:23.442Z,99660.06
2023-01-30T19:06:51.802Z,99661.25
2023-01-30T19:09:21.532Z,99663.11
2023-01-30T19:12:08.402Z,99670.07
2023-01-30T19:14:36.706Z,99672.55
2023-01-30T19:17:05.220Z,99675.57
2023-01-30T19:19:33.512Z,99682.59
2023-01-30T19:22:02.042Z,99676.59
2023-01-30T19:24:30.497Z,99679.97
2023-01-30T19:26:59.062Z,99687.42
2023-01-30T19:29:27.521Z,99679.95
2023-01-30T19:31:55.862Z,99698.61
2023-01-30T19:34:24.211Z,99686.54
2023-01-30T19:36:52.631Z,99705.52
2023-01-30T19:39:21.539Z,99701.98
2023-01-30T19:41:50.080Z,99699.81
2023-01-30T19:44:18.482Z,99709.25
2023-01-30T19:46:47.157Z,99714.08
2023-01-30T19:49:16.090Z,99709.83
2023-01-30T19:51:44.608Z,99698.92
2023-01-30T19:54:13.317Z,99707.55
2023-01-30T19:56:42.714Z,99710.41
2023-01-30T19:59:13.223Z,99715.42
2023-01-30T20:01:41.667Z,99721.46
2023-01-30T20:04:10.051Z,99719.89
2023-01-30T20:06:43.300Z,99722.20
2023-01-30T20:09:12.275Z,99724.73
2023-01-30T20:11:41.970Z,99723.10
2023-01-30T20:14:11.353Z,99706.64
2023-01-30T20:16:40.455Z,99735.11
2023-01-30T20:19:15.804Z,99731.99
2023-01-30T20:21:45.199Z,99733.20
2023-01-30T20:24:15.492Z,99739.23
2023-01-30T20:26:47.134Z,99738.47
2023-01-30T20:29:17.710Z,99740.33
2023-01-30T20:31:46.255Z,99731.02
2023-01-30T20:34:18.463Z,99746.20
2023-01-30T20:36:50.008Z,99753.52
2023-01-30T20:39:21.020Z,99741.64
2023-01-30T20:41:49.459Z,99755.83
2023-01-30T20:44:17.791Z,99754.17
2023-01-30T20:46:47.109Z,99767.08
2023-01-30T20:49:20.942Z,99765.17
2023-01-30T20:51:51.484Z,99773.21
2023-01-30T20:54:22.318Z,99776.14
2023-01-30T20:56:54.172Z,99777.59
2023-01-30T20:59:24.572Z,99780.59
2023-01-30T21:01:53.750Z,99787.72
2023-01-30T21:04:24.569Z,99795.64
2023-01-30T21:06:52.940Z,99800.34
2023-01-30T21:09:23.710Z,99793.27
2023-01-30T21:11:53.516Z,99800.83
2023-01-30T21:14:23.289Z,99807.91
2023-01-30T21:16:52.429Z,99811.83
2023-01-30T21:19:23.545Z,99819.63
2023-01-30T21:21:55.209Z,99824.56
2023-01-30T21:24:28.945Z,99828.81
2023-01-30T21:26:57.640Z,99828.19
2023-01-30T21:29:27.996Z,99827.84
2023-01-30T21:31:57.683Z,99827.36
2023-01-30T21:34:26.114Z,99835.77
2023-01-30T21:37:13.067Z,99834.59
2023-01-30T21:40:00.205Z,99837.48
2023-01-30T21:42:47.123Z,99824.31
2023-01-30T21:45:15.748Z,99841.79
2023-01-30T21:47:44.344Z,99847.46
2023-01-30T21:50:12.732Z,99850.44
2023-01-30T21:52:41.025Z,99851.50
2023-01-30T21:55:09.904Z,99859.75
2023-01-30T21:57:38.466Z,99869.36
2023-01-30T22:00:07.843Z,99870.08
2023-01-30T22:02:36.825Z,99875.42
2023-01-30T22:05:05.832Z,99878.79
2023-01-30T22:07:34.179Z,99882.61
2023-01-30T22:10:02.689Z,99885.33
2023-01-30T22:12:32.616Z,99889.33
2023-01-30T22:15:01.004Z,99880.35
2023-01-30T22:17:29.395Z,99891.77
2023-01-30T22:19:57.846Z,99880.45
2023-01-30T22:22:26.240Z,99900.33
2023-01-30T22:24:54.812Z,99910.19
2023-01-30T22:27:23.107Z,99911.33
2023-01-30T22:29:51.705Z,99913.61
2023-01-30T22:32:20.040Z,99913.27
2023-01-30T22:34:48.545Z,99913.71
2023-01-30T22:37:16.918Z,99902.14
2023-01-30T22:39:45.262Z,99918.21
2023-01-30T22:42:13.901Z,99922.80
2023-01-30T22:44:42.645Z,99925.39
2023-01-30T22:47:11.321Z,99928.66
2023-01-30T22:49:39.845Z,99932.16
2023-01-30T22:52:08.104Z,99934.21
2023-01-30T22:54:37.042Z,99939.71
2023-01-30T22:57:05.600Z,99944.77
2023-01-30T22:59:34.232Z,99948.54
2023-01-30T23:02:03.362Z,99951.63
2023-01-30T23:04:31.784Z,99948.60
2023-01-30T23:07:00.149Z,99955.67
2023-01-30T23:09:28.521Z,99958.64
2023-01-30T23:12:16.466Z,99963.20
2023-01-30T23:14:45.222Z,99966.06
2023-01-30T23:17:32.163Z,99968.60
2023-01-30T23:20:00.736Z,99960.23
2023-01-30T23:22:29.040Z,99973.06
2023-01-30T23:24:57.222Z,99969.30
2023-01-30T23:27:25.381Z,99965.56
2023-01-30T23:29:53.618Z,99968.48
2023-01-30T23:32:23.811Z,99970.92
2023-01-30T23:34:52.164Z,99956.95
2023-01-30T23:37:40.301Z,99973.95
2023-01-30T23:40:09.241Z,99983.00
2023-01-30T23:42:37.967Z,99968.17
2023-01-30T23:45:07.135Z,99987.14
2023-01-30T23:47:35.629Z,99997.58
2023-01-30T23:50:04.385Z,100002.27
2023-01-30T23:52:33.000Z,100002.54
2023-01-30T23:55:01.254Z,100002.02
2023-01-30T23:57:29.715Z,100007.92
2023-01-30T23:59:57.983Z,100006.98
